Duck, North Carolina
Current Conditions -  °F | °C
As of 10:35 PM on Monday 26 Jan 2015 (Local Time) from KFFA Reporting Station
Overcast Overcast  
Wind Chill: 33°   Ceiling: 800
Heat Index: 40°   Visibility: 10mi
Dew Point: 38°   Wind: 12mph
Humidity: 94%   Direction: 330°NNW
Pressure: 29.56"   Gusts: 25mph
Location:  36.1034°N, 75.7289°W
Report Text: KFFA 270335Z AUTO 33010G22KT 280V360 10SM OVC008 05/04 A2956 RMK AO2 T00450036
Loading
Personal Weather Stations






























Interactive Weather Map New forecast layout! Learn more

10-Day Weather Forecast

Advertisements
Track Severe Weather on mobile